createdAt,value
2019-05-14T00:00:28.804Z,4.80
2019-05-14T00:02:31.811Z,4.80
2019-05-14T00:04:33.298Z,4.80
2019-05-14T00:06:34.680Z,4.80
2019-05-14T00:08:36.053Z,4.70
2019-05-14T00:10:37.465Z,4.70
2019-05-14T00:12:38.933Z,4.70
2019-05-14T00:14:43.497Z,4.60
2019-05-14T00:16:43.633Z,4.60
2019-05-14T00:18:45.044Z,4.60
2019-05-14T00:20:46.417Z,4.50
2019-05-14T00:22:47.835Z,4.50
2019-05-14T00:24:49.247Z,4.50
2019-05-14T00:26:51.686Z,4.50
2019-05-14T00:28:53.304Z,4.40
2019-05-14T00:30:54.705Z,4.30
2019-05-14T00:32:56.112Z,4.20
2019-05-14T00:34:57.521Z,4.20
2019-05-14T00:36:58.900Z,4.10
2019-05-14T00:39:01.821Z,4.10
2019-05-14T00:41:03.446Z,4.00
2019-05-14T00:43:04.816Z,3.90
2019-05-14T00:45:06.533Z,3.90
2019-05-14T00:47:07.909Z,3.90
2019-05-14T00:49:09.312Z,3.80
2019-05-14T00:51:12.580Z,3.80
2019-05-14T00:53:13.980Z,3.80
2019-05-14T00:55:15.391Z,3.70
2019-05-14T00:57:16.764Z,3.70
2019-05-14T00:59:18.220Z,3.70
2019-05-14T01:01:21.503Z,3.60
2019-05-14T01:03:22.908Z,3.50
2019-05-14T01:05:24.317Z,3.50
2019-05-14T01:07:25.691Z,3.40
2019-05-14T01:09:27.072Z,3.40
2019-05-14T01:11:28.484Z,3.40
2019-05-14T01:13:31.219Z,3.30
2019-05-14T01:15:32.781Z,3.30
2019-05-14T01:17:34.154Z,3.30
2019-05-14T01:19:35.567Z,3.20
2019-05-14T01:21:36.982Z,3.20
2019-05-14T01:23:41.350Z,3.20
2019-05-14T01:25:42.444Z,3.10
2019-05-14T01:27:43.867Z,3.10
2019-05-14T01:29:45.225Z,3.20
2019-05-14T01:31:46.607Z,3.20
2019-05-14T01:33:48.012Z,3.20
2019-05-14T01:35:51.511Z,3.10
2019-05-14T01:37:52.711Z,3.10
2019-05-14T01:39:54.121Z,3.10
2019-05-14T01:41:55.548Z,3.00
2019-05-14T01:43:56.982Z,3.00
2019-05-14T01:45:58.399Z,2.90
2019-05-14T01:48:01.182Z,2.90
2019-05-14T01:50:05.757Z,2.90
2019-05-14T01:52:07.170Z,2.80
2019-05-14T01:54:08.549Z,2.80
2019-05-14T01:56:11.999Z,2.70
2019-05-14T01:58:13.277Z,2.70
2019-05-14T02:00:15.160Z,2.70
2019-05-14T02:02:16.612Z,2.60
2019-05-14T02:04:17.994Z,2.60
2019-05-14T02:06:21.324Z,2.60
2019-05-14T02:08:22.688Z,2.50
2019-05-14T02:10:24.464Z,2.50
2019-05-14T02:12:25.870Z,2.50
2019-05-14T02:14:27.256Z,2.50
2019-05-14T02:16:28.775Z,2.50
2019-05-14T02:18:31.175Z,2.50
2019-05-14T02:20:32.764Z,2.50
2019-05-14T02:22:34.236Z,2.50
2019-05-14T02:24:35.613Z,2.50
2019-05-14T02:26:37.013Z,2.40
2019-05-14T02:28:38.388Z,2.30
2019-05-14T02:30:51.748Z,2.30
2019-05-14T02:32:43.140Z,2.30
2019-05-14T02:34:44.515Z,2.30
2019-05-14T02:36:49.398Z,2.30
2019-05-14T02:38:49.591Z,2.30
2019-05-14T02:40:51.223Z,2.30
2019-05-14T02:42:52.601Z,2.20
2019-05-14T02:44:54.008Z,2.10
2019-05-14T02:46:55.422Z,2.10
2019-05-14T02:48:59.484Z,2.10
2019-05-14T02:51:00.229Z,2.10
2019-05-14T02:53:01.771Z,2.10
2019-05-14T02:55:05.147Z,2.00
2019-05-14T02:57:10.098Z,2.00
2019-05-14T02:59:10.117Z,2.00
2019-05-14T03:01:11.705Z,1.90
2019-05-14T03:03:13.073Z,1.80
2019-05-14T03:05:14.994Z,1.80
2019-05-14T03:07:19.164Z,1.80
2019-05-14T03:09:20.291Z,1.80
2019-05-14T03:11:22.155Z,1.80
2019-05-14T03:13:23.530Z,1.80
2019-05-14T03:15:25.001Z,1.80
2019-05-14T03:17:29.782Z,1.70
2019-05-14T03:19:30.169Z,1.70
2019-05-14T03:21:31.684Z,1.70
2019-05-14T03:23:33.037Z,1.70
2019-05-14T03:25:34.407Z,1.70
2019-05-14T03:27:35.818Z,1.80
2019-05-14T03:29:39.822Z,1.80
2019-05-14T03:31:42.567Z,1.80
2019-05-14T03:33:44.985Z,1.80
2019-05-14T03:35:52.081Z,1.80
2019-05-14T03:37:50.068Z,1.90
2019-05-14T03:39:51.526Z,1.90
2019-05-14T03:41:52.896Z,1.80
2019-05-14T03:43:54.298Z,1.80
2019-05-14T03:45:58.986Z,1.70
2019-05-14T03:47:59.394Z,1.80
2019-05-14T03:50:00.754Z,1.80
2019-05-14T03:52:02.152Z,1.80
2019-05-14T03:54:07.507Z,1.80
2019-05-14T03:56:10.131Z,1.80
2019-05-14T03:58:10.136Z,1.80
2019-05-14T04:00:12.102Z,1.80
2019-05-14T04:02:14.098Z,1.80
2019-05-14T04:04:19.172Z,1.80
2019-05-14T04:06:20.275Z,1.80
2019-05-14T04:08:24.343Z,1.80
2019-05-14T04:10:26.147Z,1.90
2019-05-14T04:12:30.225Z,2.00
2019-05-14T04:14:32.933Z,2.00
2019-05-14T04:16:35.816Z,2.10
2019-05-14T04:18:40.202Z,2.20
2019-05-14T04:20:43.336Z,2.20
2019-05-14T04:22:50.091Z,2.30
2019-05-14T04:24:53.923Z,2.30
2019-05-14T04:27:07.338Z,2.40
2019-05-14T04:29:04.982Z,2.40
2019-05-14T04:31:09.493Z,2.40
2019-05-14T04:33:10.785Z,2.50
2019-05-14T04:35:12.275Z,2.50
2019-05-14T04:37:13.676Z,2.50
2019-05-14T04:39:15.124Z,2.60
2019-05-14T04:41:19.547Z,2.60
2019-05-14T04:43:19.864Z,2.70
2019-05-14T04:45:21.251Z,2.80
2019-05-14T04:47:32.012Z,2.90
2019-05-14T04:49:28.915Z,3.00
2019-05-14T04:51:30.212Z,3.10
2019-05-14T04:53:32.074Z,3.20
2019-05-14T04:55:33.655Z,3.30
2019-05-14T04:57:35.038Z,3.40
2019-05-14T04:59:39.648Z,3.50
2019-05-14T05:01:40.281Z,3.70
2019-05-14T05:03:41.962Z,3.80
2019-05-14T05:05:43.332Z,3.90
2019-05-14T05:07:44.671Z,4.10
2019-05-14T05:09:46.084Z,4.20
2019-05-14T05:11:49.757Z,4.40
2019-05-14T05:13:50.762Z,4.50
2019-05-14T05:15:52.121Z,4.60
2019-05-14T05:17:53.587Z,4.80
2019-05-14T05:19:54.971Z,4.90
2019-05-14T05:21:58.554Z,5.00
2019-05-14T05:23:59.661Z,5.10
2019-05-14T05:26:01.065Z,5.20
2019-05-14T05:28:02.466Z,5.30
2019-05-14T05:30:08.282Z,5.40
2019-05-14T05:32:09.048Z,5.50
2019-05-14T05:34:10.424Z,5.70
2019-05-14T05:36:11.857Z,5.70
2019-05-14T05:38:13.231Z,5.80
2019-05-14T05:40:14.809Z,5.90
2019-05-14T05:42:18.582Z,6.10
2019-05-14T05:44:19.581Z,6.30
2019-05-14T05:46:20.996Z,6.40
2019-05-14T05:48:22.392Z,6.50
2019-05-14T05:50:23.787Z,6.60
2019-05-14T05:52:25.159Z,6.70
2019-05-14T05:54:29.014Z,6.80
2019-05-14T05:56:29.816Z,7.10
2019-05-14T05:58:31.189Z,7.30
2019-05-14T06:00:40.203Z,7.50
2019-05-14T06:02:41.671Z,7.70
2019-05-14T06:04:43.047Z,8.00
2019-05-14T06:06:44.456Z,8.30
2019-05-14T06:08:45.819Z,8.40
2019-05-14T06:10:49.045Z,8.70
2019-05-14T06:12:50.467Z,9.30
2019-05-14T06:14:51.830Z,9.70
2019-05-14T06:16:53.193Z,10.30
2019-05-14T06:18:54.636Z,10.80
2019-05-14T06:20:58.329Z,11.40
2019-05-14T06:22:59.360Z,11.60
2019-05-14T06:25:00.725Z,11.70
2019-05-14T06:27:02.083Z,12.10
2019-05-14T06:29:03.483Z,12.50
2019-05-14T06:31:04.894Z,12.80
2019-05-14T06:33:09.058Z,13.20
2019-05-14T06:35:09.841Z,13.10
2019-05-14T06:37:11.247Z,12.60
2019-05-14T06:39:12.659Z,12.60
2019-05-14T06:41:14.923Z,12.20
2019-05-14T06:43:16.344Z,11.70
2019-05-14T06:45:18.753Z,11.30
2019-05-14T06:47:20.275Z,11.70
2019-05-14T06:49:21.669Z,12.40
2019-05-14T06:51:23.079Z,12.60
2019-05-14T06:53:24.446Z,12.50
2019-05-14T06:55:28.308Z,11.80
2019-05-14T06:57:29.146Z,11.20
2019-05-14T06:59:30.546Z,10.50
2019-05-14T07:01:31.951Z,10.20
2019-05-14T07:03:33.313Z,10.00
2019-05-14T07:05:34.720Z,10.00
2019-05-14T07:07:36.094Z,9.90
2019-05-14T07:09:38.412Z,10.10
2019-05-14T07:11:40.155Z,10.20
2019-05-14T07:13:41.520Z,10.30
2019-05-14T07:15:42.995Z,10.80
2019-05-14T07:17:44.428Z,11.50
2019-05-14T07:19:45.824Z,12.30
2019-05-14T07:21:49.224Z,12.40
2019-05-14T07:23:50.488Z,12.30
2019-05-14T07:25:51.849Z,12.10
2019-05-14T07:27:53.247Z,12.20
2019-05-14T07:29:54.618Z,12.40
2019-05-14T07:31:58.232Z,12.30
2019-05-14T07:33:59.435Z,12.00
2019-05-14T07:36:00.797Z,11.40
2019-05-14T07:38:02.211Z,11.00
2019-05-14T07:40:05.180Z,10.90
2019-05-14T07:42:09.349Z,10.80
2019-05-14T07:44:10.257Z,10.80
2019-05-14T07:46:11.625Z,10.80
2019-05-14T07:48:13.016Z,11.00
2019-05-14T07:50:14.896Z,11.90
2019-05-14T07:52:16.253Z,12.80
2019-05-14T07:54:19.540Z,13.70
2019-05-14T07:56:20.924Z,14.10
2019-05-14T07:58:22.333Z,14.10
2019-05-14T08:00:24.005Z,13.90
2019-05-14T08:02:25.504Z,13.20
2019-05-14T08:04:28.862Z,12.60
2019-05-14T08:06:30.161Z,12.20
2019-05-14T08:08:31.697Z,12.10
2019-05-14T08:10:33.062Z,12.00
2019-05-14T08:12:34.428Z,12.10
2019-05-14T08:14:46.526Z,12.20
2019-05-14T08:16:39.289Z,12.30
2019-05-14T08:18:40.656Z,12.40
2019-05-14T08:20:42.052Z,12.10
2019-05-14T08:22:43.425Z,11.90
2019-05-14T08:24:45.949Z,11.90
2019-05-14T08:26:48.678Z,11.70
2019-05-14T08:28:50.297Z,11.60
2019-05-14T08:30:51.702Z,11.50
2019-05-14T08:32:53.069Z,11.60
2019-05-14T08:34:54.429Z,12.20
2019-05-14T08:36:55.846Z,12.90
2019-05-14T08:38:58.139Z,13.20
2019-05-14T08:40:59.574Z,13.50
2019-05-14T08:43:00.967Z,13.60
2019-05-14T08:45:10.504Z,13.50
2019-05-14T08:47:10.277Z,13.40
2019-05-14T08:49:11.672Z,13.60
2019-05-14T08:51:13.080Z,13.50
2019-05-14T08:53:14.466Z,13.70
2019-05-14T08:55:18.324Z,14.00
2019-05-14T08:57:19.331Z,13.90
2019-05-14T08:59:20.779Z,13.70
2019-05-14T09:01:22.168Z,13.50
2019-05-14T09:03:23.537Z,13.40
2019-05-14T09:05:24.929Z,13.10
2019-05-14T09:07:28.809Z,13.00
2019-05-14T09:09:29.619Z,12.90
2019-05-14T09:11:35.736Z,13.00
2019-05-14T09:13:34.268Z,13.50
2019-05-14T09:15:38.330Z,14.30
2019-05-14T09:17:39.276Z,14.90
2019-05-14T09:19:57.162Z,15.40
2019-05-14T09:21:44.158Z,15.40
2019-05-14T09:23:48.060Z,15.40
2019-05-14T09:25:53.011Z,15.40
2019-05-14T09:27:52.199Z,15.00
2019-05-14T09:29:53.557Z,14.60
2019-05-14T09:31:54.943Z,14.40
2019-05-14T09:33:58.332Z,14.50
2019-05-14T09:36:11.056Z,14.90
2019-05-14T09:38:03.131Z,15.30
2019-05-14T09:40:05.961Z,15.80
2019-05-14T09:42:08.180Z,16.10
2019-05-14T09:44:09.815Z,15.90
2019-05-14T09:46:11.215Z,15.70
2019-05-14T09:48:12.583Z,15.00
2019-05-14T09:50:18.630Z,14.40
2019-05-14T09:52:18.647Z,13.80
2019-05-14T09:54:20.382Z,13.50
2019-05-14T09:56:21.776Z,13.60
2019-05-14T09:58:23.164Z,14.50
2019-05-14T10:00:24.723Z,15.30
2019-05-14T10:02:26.120Z,15.90
2019-05-14T10:04:27.515Z,15.80
2019-05-14T10:06:28.879Z,15.50
2019-05-14T10:08:30.244Z,14.90
2019-05-14T10:10:31.712Z,14.40
2019-05-14T10:12:33.060Z,13.80
2019-05-14T10:14:34.414Z,14.10
2019-05-14T10:16:38.241Z,14.80
2019-05-14T10:18:39.092Z,15.50
2019-05-14T10:20:45.367Z,16.20
2019-05-14T10:22:43.781Z,16.10
2019-05-14T10:24:45.169Z,15.70
2019-05-14T10:26:48.954Z,15.00
2019-05-14T10:28:49.906Z,14.40
2019-05-14T10:30:51.310Z,13.90
2019-05-14T10:32:52.721Z,13.60
2019-05-14T10:34:54.083Z,13.30
2019-05-14T10:36:55.444Z,13.20
2019-05-14T10:38:58.844Z,13.10
2019-05-14T10:41:00.104Z,13.00
2019-05-14T10:43:01.714Z,12.80
2019-05-14T10:45:12.288Z,12.70
2019-05-14T10:47:09.836Z,12.70
2019-05-14T10:49:19.480Z,12.70
2019-05-14T10:51:14.497Z,12.70
2019-05-14T10:53:15.899Z,13.00
2019-05-14T10:55:18.532Z,13.60
2019-05-14T10:57:20.227Z,14.10
2019-05-14T10:59:21.652Z,14.40
2019-05-14T11:01:23.108Z,14.50
2019-05-14T11:03:24.500Z,14.40
2019-05-14T11:05:27.994Z,14.20
2019-05-14T11:07:29.359Z,14.10
2019-05-14T11:09:30.783Z,14.00
2019-05-14T11:11:32.187Z,14.70
2019-05-14T11:13:33.584Z,15.00
2019-05-14T11:15:34.933Z,14.80
2019-05-14T11:17:36.369Z,14.60
2019-05-14T11:19:38.982Z,14.50
2019-05-14T11:21:40.538Z,14.50
2019-05-14T11:23:41.964Z,14.60
2019-05-14T11:25:43.330Z,14.80
2019-05-14T11:27:44.722Z,14.80
2019-05-14T11:29:46.114Z,14.50
2019-05-14T11:31:48.423Z,14.40
2019-05-14T11:33:50.084Z,14.10
2019-05-14T11:35:51.492Z,14.10
2019-05-14T11:37:52.854Z,14.00
2019-05-14T11:39:54.227Z,14.00
2019-05-14T11:41:55.622Z,14.00
2019-05-14T11:43:59.308Z,13.90
2019-05-14T11:46:00.597Z,13.80
2019-05-14T11:48:01.998Z,13.80
2019-05-14T11:50:09.013Z,13.80
2019-05-14T11:52:11.760Z,13.70
2019-05-14T11:54:13.452Z,13.80
2019-05-14T11:56:14.846Z,14.40
2019-05-14T11:58:20.371Z,15.30
2019-05-14T12:00:20.105Z,16.00
2019-05-14T12:02:21.470Z,16.10
2019-05-14T12:04:22.997Z,15.70
2019-05-14T12:06:24.408Z,15.30
2019-05-14T12:08:25.863Z,15.00
2019-05-14T12:10:29.261Z,14.60
2019-05-14T12:12:30.531Z,14.60
2019-05-14T12:14:32.250Z,14.50
2019-05-14T12:16:33.595Z,14.50
2019-05-14T12:18:34.989Z,14.60
2019-05-14T12:20:39.340Z,14.70
2019-05-14T12:22:39.729Z,14.80
2019-05-14T12:24:41.134Z,14.60
2019-05-14T12:26:42.634Z,14.70
2019-05-14T12:28:44.039Z,15.10
2019-05-14T12:30:45.387Z,15.30
2019-05-14T12:32:49.790Z,15.20
2019-05-14T12:34:50.097Z,15.30
2019-05-14T12:36:51.465Z,15.40
2019-05-14T12:38:52.851Z,15.50
2019-05-14T12:40:54.207Z,15.70
2019-05-14T12:42:58.579Z,15.90
2019-05-14T12:44:58.933Z,16.30
2019-05-14T12:47:00.297Z,16.20
2019-05-14T12:49:01.707Z,15.90
2019-05-14T12:51:03.116Z,15.50
2019-05-14T12:53:04.474Z,15.00
2019-05-14T12:55:08.867Z,14.70
2019-05-14T12:57:09.739Z,14.50
2019-05-14T12:59:11.134Z,14.70
2019-05-14T13:01:12.529Z,14.60
2019-05-14T13:03:13.935Z,14.50
2019-05-14T13:05:18.131Z,14.60
2019-05-14T13:07:19.236Z,14.70
2019-05-14T13:09:21.676Z,14.60
2019-05-14T13:11:23.445Z,14.50
2019-05-14T13:13:24.801Z,14.40
2019-05-14T13:15:28.679Z,14.60
2019-05-14T13:17:29.472Z,14.90
2019-05-14T13:19:30.836Z,15.30
2019-05-14T13:21:32.194Z,15.60
2019-05-14T13:23:33.638Z,15.50
2019-05-14T13:25:35.107Z,15.30
2019-05-14T13:27:38.947Z,15.30
2019-05-14T13:29:39.786Z,15.60
2019-05-14T13:31:41.185Z,15.70
2019-05-14T13:33:42.546Z,15.50
2019-05-14T13:35:43.906Z,15.30
2019-05-14T13:37:45.302Z,15.40
2019-05-14T13:39:52.709Z,15.60
2019-05-14T13:41:49.978Z,15.70
2019-05-14T13:43:51.351Z,15.80
2019-05-14T13:45:52.711Z,15.90
2019-05-14T13:47:54.115Z,15.90
2019-05-14T13:49:55.473Z,15.60
2019-05-14T13:51:56.837Z,15.40
2019-05-14T13:53:58.941Z,15.40
2019-05-14T13:56:00.488Z,15.20
2019-05-14T13:58:01.981Z,15.40
2019-05-14T14:00:11.532Z,15.60
2019-05-14T14:02:09.824Z,15.60
2019-05-14T14:04:15.075Z,15.30
2019-05-14T14:06:14.962Z,15.00
2019-05-14T14:08:19.118Z,15.00
2019-05-14T14:10:19.714Z,15.30
2019-05-14T14:12:25.016Z,15.70
2019-05-14T14:14:24.383Z,15.80
2019-05-14T14:16:28.359Z,16.00
2019-05-14T14:18:29.424Z,16.00
2019-05-14T14:20:30.911Z,15.70
2019-05-14T14:22:32.326Z,15.50
2019-05-14T14:24:33.683Z,15.30
2019-05-14T14:26:35.044Z,15.40
2019-05-14T14:28:39.272Z,15.60
2019-05-14T14:30:39.806Z,15.50
2019-05-14T14:32:41.205Z,15.30
2019-05-14T14:34:42.560Z,14.90
2019-05-14T14:36:43.922Z,15.10
2019-05-14T14:38:45.427Z,15.40
2019-05-14T14:40:48.611Z,15.50
2019-05-14T14:42:50.127Z,15.70
2019-05-14T14:44:51.528Z,15.70
2019-05-14T14:46:52.887Z,15.90
2019-05-14T14:48:57.741Z,15.80
2019-05-14T14:50:58.680Z,15.70
2019-05-14T14:53:00.238Z,15.10
2019-05-14T14:55:02.239Z,14.90
2019-05-14T14:57:03.597Z,14.80
2019-05-14T14:59:04.989Z,14.60
2019-05-14T15:01:08.565Z,14.50
2019-05-14T15:03:10.177Z,14.40
2019-05-14T15:05:14.337Z,14.30
2019-05-14T15:07:15.349Z,14.20
2019-05-14T15:09:16.728Z,14.30
2019-05-14T15:11:18.125Z,14.40
2019-05-14T15:13:19.500Z,14.40
2019-05-14T17:12:57.137Z,13.70
2019-05-14T17:14:58.656Z,14.10
2019-05-14T17:17:00.006Z,14.20
2019-05-14T17:19:01.526Z,14.30
2019-05-14T17:21:02.980Z,14.40
2019-05-14T17:23:04.404Z,14.20
2019-05-14T17:25:09.047Z,13.90
2019-05-14T17:27:09.640Z,13.60
2019-05-14T17:29:11.041Z,13.50
2019-05-14T17:31:12.413Z,13.40
2019-05-14T17:33:13.811Z,13.50
2019-05-14T17:35:15.312Z,13.40
2019-05-14T17:37:18.914Z,13.30
2019-05-14T17:39:19.980Z,13.00
2019-05-14T17:41:21.382Z,12.70
2019-05-14T17:43:23.363Z,12.40
2019-05-14T17:45:24.861Z,12.30
2019-05-14T17:47:28.865Z,12.20
2019-05-14T17:49:29.714Z,12.10
2019-05-14T17:51:31.110Z,12.10
2019-05-14T17:53:32.495Z,12.10
2019-05-14T17:55:46.407Z,12.10
2019-05-14T17:57:44.245Z,12.00
2019-05-14T17:59:40.506Z,11.90
2019-05-14T18:01:41.894Z,11.90
2019-05-14T18:03:43.277Z,11.80
2019-05-14T18:05:44.840Z,11.70
2019-05-14T18:07:48.268Z,11.60
2019-05-14T18:09:49.537Z,11.50
2019-05-14T18:11:50.934Z,11.40
2019-05-14T18:13:52.314Z,11.30
2019-05-14T18:15:53.666Z,11.20
2019-05-14T18:17:55.114Z,11.20
2019-05-14T18:19:58.759Z,11.10
2019-05-14T18:22:00.001Z,11.10
2019-05-14T18:24:01.455Z,11.00
2019-05-14T18:26:08.345Z,11.00
2019-05-14T18:28:09.088Z,10.80
2019-05-14T18:30:10.726Z,10.80
2019-05-14T18:32:12.113Z,10.70
2019-05-14T18:34:13.502Z,10.70
2019-05-14T18:36:14.948Z,10.60
2019-05-14T18:38:16.309Z,10.50
2019-05-14T18:40:18.344Z,10.40
2019-05-14T18:42:19.921Z,10.40
2019-05-14T18:44:21.345Z,10.30
2019-05-14T18:46:24.193Z,10.20
2019-05-14T18:48:25.580Z,10.20
2019-05-14T18:50:28.885Z,10.10
2019-05-14T18:52:30.532Z,10.00
2019-05-14T18:54:31.896Z,9.90
2019-05-14T18:56:33.286Z,9.90
2019-05-14T18:58:34.686Z,9.80
2019-05-14T19:00:38.649Z,9.70
2019-05-14T19:02:39.490Z,9.60
2019-05-14T19:04:40.946Z,9.50
2019-05-14T19:06:42.304Z,9.50
2019-05-14T19:08:43.728Z,9.50
2019-05-14T19:10:45.149Z,9.40
2019-05-14T19:12:47.786Z,9.30
2019-05-14T19:14:49.847Z,9.20
2019-05-14T19:16:51.240Z,9.10
2019-05-14T19:18:52.673Z,9.00
2019-05-14T19:20:54.062Z,8.90
2019-05-14T19:22:55.449Z,8.90
2019-05-14T19:24:58.680Z,8.80
2019-05-14T19:27:00.256Z,8.70
2019-05-14T19:29:01.637Z,8.70
2019-05-14T19:31:03.134Z,8.60
2019-05-14T19:33:04.610Z,8.60
2019-05-14T19:35:08.423Z,8.40
2019-05-14T19:37:09.629Z,8.30
2019-05-14T19:39:11.013Z,8.30
2019-05-14T19:41:12.364Z,8.20
2019-05-14T19:43:13.785Z,8.20
2019-05-14T19:45:15.871Z,8.10
2019-05-14T19:47:18.726Z,8.10
2019-05-14T19:49:32.270Z,8.00
2019-05-14T19:51:33.656Z,8.00
2019-05-14T19:53:35.079Z,8.00
2019-05-14T19:55:38.952Z,7.90
2019-05-14T19:57:39.837Z,7.90
2019-05-14T19:59:41.271Z,7.80
2019-05-14T20:01:42.785Z,7.70
2019-05-14T20:03:44.166Z,7.60
2019-05-14T20:05:45.589Z,7.60
2019-05-14T20:07:48.993Z,7.60
2019-05-14T20:09:50.359Z,7.60
2019-05-14T20:11:51.786Z,7.60
2019-05-14T20:13:53.174Z,7.50
2019-05-14T20:15:54.552Z,7.40
2019-05-14T20:17:58.034Z,7.40
2019-05-14T20:19:59.497Z,7.30
2019-05-14T20:22:01.204Z,7.30
2019-05-14T20:24:02.682Z,7.30
2019-05-14T20:26:04.086Z,7.20
2019-05-14T20:28:05.473Z,7.10
2019-05-14T20:30:08.707Z,7.10
2019-05-14T20:32:10.226Z,7.10
2019-05-14T20:34:11.565Z,7.00
2019-05-14T20:36:12.958Z,7.00
2019-05-14T20:38:14.544Z,7.00
2019-05-14T20:40:16.566Z,7.00
2019-05-14T20:42:18.544Z,7.00
2019-05-14T20:44:20.154Z,6.90
2019-05-14T20:46:21.546Z,6.90
2019-05-14T20:48:22.929Z,6.80
2019-05-14T20:50:24.326Z,6.80
2019-05-14T20:52:25.710Z,6.80
2019-05-14T20:54:29.006Z,6.70
2019-05-14T20:56:30.423Z,6.70
2019-05-14T20:58:31.883Z,6.60
2019-05-14T21:00:33.253Z,6.60
2019-05-14T21:02:34.637Z,6.70
2019-05-14T21:04:36.049Z,6.60
2019-05-14T21:06:39.046Z,6.60
2019-05-14T21:08:40.669Z,6.60
2019-05-14T21:10:42.079Z,6.50
2019-05-14T21:12:43.525Z,6.50
2019-05-14T21:14:44.889Z,6.50
2019-05-14T21:16:48.672Z,6.40
2019-05-14T21:18:49.611Z,6.40
2019-05-14T21:20:51.016Z,6.40
2019-05-14T21:22:52.408Z,6.40
2019-05-14T21:24:53.842Z,6.30
2019-05-14T21:26:55.260Z,6.30
2019-05-14T21:28:58.234Z,6.30
2019-05-14T21:31:00.371Z,6.30
2019-05-14T21:33:01.773Z,6.20
2019-05-14T21:35:04.480Z,6.20
2019-05-14T21:37:05.905Z,6.10
2019-05-14T21:39:08.047Z,6.00
2019-05-14T21:41:09.685Z,6.00
2019-05-14T21:43:11.401Z,5.90
2019-05-14T21:45:13.281Z,5.90
2019-05-14T21:47:14.661Z,5.90
2019-05-14T21:49:16.095Z,5.80
2019-05-14T21:51:18.066Z,5.70
2019-05-14T21:53:19.648Z,5.70
2019-05-14T21:55:21.036Z,5.60
2019-05-14T21:57:22.426Z,5.50
2019-05-14T21:59:23.821Z,5.50
2019-05-14T22:01:27.748Z,5.50
2019-05-14T22:03:28.898Z,5.40
2019-05-14T22:05:30.250Z,5.40
2019-05-14T22:07:31.664Z,5.30
2019-05-14T22:09:33.395Z,5.30
2019-05-14T22:11:35.017Z,5.20
2019-05-14T22:13:38.120Z,5.20
2019-05-14T22:15:39.901Z,5.20
2019-05-14T22:17:41.305Z,5.10
2019-05-14T22:19:42.691Z,5.00
2019-05-14T22:21:44.126Z,4.90
2019-05-14T22:23:48.021Z,4.80
2019-05-14T22:25:48.784Z,4.60
2019-05-14T22:27:50.194Z,4.50
2019-05-14T22:29:51.604Z,4.50
2019-05-14T22:31:52.968Z,4.50
2019-05-14T22:33:54.382Z,4.50
2019-05-14T22:35:57.937Z,4.50
2019-05-14T22:37:59.778Z,4.50
2019-05-14T22:40:01.202Z,4.40
2019-05-14T22:42:02.691Z,4.40
2019-05-14T22:44:04.054Z,4.40
2019-05-14T22:46:05.474Z,4.40
2019-05-14T22:48:09.141Z,4.40
2019-05-14T22:50:10.594Z,4.40
2019-05-14T22:52:11.976Z,4.30
2019-05-14T22:54:13.358Z,4.30
2019-05-14T22:56:14.803Z,4.30
2019-05-14T22:58:25.209Z,4.30
2019-05-14T23:00:21.169Z,4.20
2019-05-14T23:02:22.660Z,4.20
2019-05-14T23:04:24.040Z,4.20
2019-05-14T23:06:25.505Z,4.20
2019-05-14T23:08:26.926Z,4.20
2019-05-14T23:10:28.410Z,4.10
2019-05-14T23:12:29.795Z,4.10
2019-05-14T23:14:31.218Z,4.10
2019-05-14T23:16:37.784Z,4.00
2019-05-14T23:18:37.990Z,4.00
2019-05-14T23:20:39.473Z,3.90
2019-05-14T23:22:40.835Z,3.90
2019-05-14T23:24:42.230Z,3.90
2019-05-14T23:26:43.643Z,3.90
2019-05-14T23:28:46.071Z,3.80
2019-05-14T23:30:48.362Z,3.80
2019-05-14T23:32:49.729Z,3.70
2019-05-14T23:34:51.211Z,3.70
2019-05-14T23:36:52.606Z,3.60
2019-05-14T23:38:54.988Z,3.70
2019-05-14T23:40:58.772Z,3.70
2019-05-14T23:43:00.310Z,3.70
2019-05-14T23:45:02.885Z,3.60
2019-05-14T23:47:04.308Z,3.60
2019-05-14T23:49:05.670Z,3.60
2019-05-14T23:51:08.093Z,3.60
2019-05-14T23:53:09.766Z,3.50
2019-05-14T23:55:11.430Z,3.50
2019-05-14T23:57:12.866Z,3.50
2019-05-14T23:59:14.230Z,3.40
